sensor_id;sensor_type;location;lat;lon;timestamp;pressure;altitude;pressure_sealevel;temperature
15607;BMP180;7865;50.918;4.510;2022-10-16T00:02:28;100492.00;;;12.70
15607;BMP180;7865;50.918;4.510;2022-10-16T00:07:29;100493.00;;;12.60
15607;BMP180;7865;50.918;4.510;2022-10-16T00:12:30;100494.00;;;12.70
15607;BMP180;7865;50.918;4.510;2022-10-16T00:17:31;100493.00;;;12.60
15607;BMP180;7865;50.918;4.510;2022-10-16T00:22:33;100506.00;;;12.60
15607;BMP180;7865;50.918;4.510;2022-10-16T00:27:34;100496.00;;;12.50
15607;BMP180;7865;50.918;4.510;2022-10-16T00:32:36;100502.00;;;12.60
15607;BMP180;7865;50.918;4.510;2022-10-16T00:37:37;100498.00;;;12.60
15607;BMP180;7865;50.918;4.510;2022-10-16T00:42:38;100494.00;;;12.60
15607;BMP180;7865;50.918;4.510;2022-10-16T00:47:42;100499.00;;;12.60
15607;BMP180;7865;50.918;4.510;2022-10-16T00:52:47;100505.00;;;12.60
15607;BMP180;7865;50.918;4.510;2022-10-16T00:57:49;100501.00;;;12.60
15607;BMP180;7865;50.918;4.510;2022-10-16T01:02:56;100515.00;;;12.60
15607;BMP180;7865;50.918;4.510;2022-10-16T01:08:11;100522.00;;;12.50
15607;BMP180;7865;50.918;4.510;2022-10-16T01:13:24;100508.00;;;12.40
15607;BMP180;7865;50.918;4.510;2022-10-16T01:35:14;100511.00;;;12.60
15607;BMP180;7865;50.918;4.510;2022-10-16T01:40:20;100503.00;;;12.50
15607;BMP180;7865;50.918;4.510;2022-10-16T01:45:23;100501.00;;;12.60
15607;BMP180;7865;50.918;4.510;2022-10-16T01:50:24;100506.00;;;12.70
15607;BMP180;7865;50.918;4.510;2022-10-16T01:55:31;100504.00;;;12.60
15607;BMP180;7865;50.918;4.510;2022-10-16T02:00:33;100508.00;;;12.60
15607;BMP180;7865;50.918;4.510;2022-10-16T02:05:44;100512.00;;;12.50
15607;BMP180;7865;50.918;4.510;2022-10-16T02:10:46;100510.00;;;12.50
15607;BMP180;7865;50.918;4.510;2022-10-16T02:15:47;100522.00;;;12.40
15607;BMP180;7865;50.918;4.510;2022-10-16T02:20:58;100525.00;;;12.40
15607;BMP180;7865;50.918;4.510;2022-10-16T02:26:03;100521.00;;;12.40
15607;BMP180;7865;50.918;4.510;2022-10-16T02:31:09;100518.00;;;12.30
15607;BMP180;7865;50.918;4.510;2022-10-16T02:36:12;100533.00;;;12.30
15607;BMP180;7865;50.918;4.510;2022-10-16T02:41:14;100527.00;;;12.40
15607;BMP180;7865;50.918;4.510;2022-10-16T02:46:15;100520.00;;;12.40
15607;BMP180;7865;50.918;4.510;2022-10-16T02:51:18;100531.00;;;12.40
15607;BMP180;7865;50.918;4.510;2022-10-16T02:56:19;100531.00;;;12.40
15607;BMP180;7865;50.918;4.510;2022-10-16T03:01:20;100542.00;;;12.40
15607;BMP180;7865;50.918;4.510;2022-10-16T03:06:21;100545.00;;;12.50
15607;BMP180;7865;50.918;4.510;2022-10-16T03:11:22;100534.00;;;12.50
15607;BMP180;7865;50.918;4.510;2022-10-16T03:16:24;100562.00;;;12.50
15607;BMP180;7865;50.918;4.510;2022-10-16T03:21:25;100552.00;;;12.50
15607;BMP180;7865;50.918;4.510;2022-10-16T03:26:26;100555.00;;;12.40
15607;BMP180;7865;50.918;4.510;2022-10-16T03:31:27;100560.00;;;12.40
15607;BMP180;7865;50.918;4.510;2022-10-16T03:36:29;100567.00;;;12.40
15607;BMP180;7865;50.918;4.510;2022-10-16T03:41:30;100565.00;;;12.30
15607;BMP180;7865;50.918;4.510;2022-10-16T03:46:31;100551.00;;;12.30
15607;BMP180;7865;50.918;4.510;2022-10-16T03:51:33;100553.00;;;12.30
15607;BMP180;7865;50.918;4.510;2022-10-16T03:56:34;100556.00;;;12.30
15607;BMP180;7865;50.918;4.510;2022-10-16T04:01:35;100564.00;;;12.40
15607;BMP180;7865;50.918;4.510;2022-10-16T04:06:37;100570.00;;;12.40
15607;BMP180;7865;50.918;4.510;2022-10-16T04:11:38;100575.00;;;12.40
15607;BMP180;7865;50.918;4.510;2022-10-16T04:16:39;100581.00;;;12.40
15607;BMP180;7865;50.918;4.510;2022-10-16T04:21:41;100598.00;;;12.40
15607;BMP180;7865;50.918;4.510;2022-10-16T04:26:42;100596.00;;;12.40
15607;BMP180;7865;50.918;4.510;2022-10-16T04:31:43;100590.00;;;12.40
15607;BMP180;7865;50.918;4.510;2022-10-16T04:36:47;100602.00;;;12.40
15607;BMP180;7865;50.918;4.510;2022-10-16T04:41:48;100609.00;;;12.40
15607;BMP180;7865;50.918;4.510;2022-10-16T04:46:52;100625.00;;;12.40
15607;BMP180;7865;50.918;4.510;2022-10-16T04:51:54;100618.00;;;12.30
15607;BMP180;7865;50.918;4.510;2022-10-16T04:56:55;100625.00;;;12.30
15607;BMP180;7865;50.918;4.510;2022-10-16T05:01:56;100635.00;;;12.20
15607;BMP180;7865;50.918;4.510;2022-10-16T05:06:57;100647.00;;;12.20
15607;BMP180;7865;50.918;4.510;2022-10-16T05:11:58;100644.00;;;12.20
15607;BMP180;7865;50.918;4.510;2022-10-16T05:16:59;100654.00;;;12.10
15607;BMP180;7865;50.918;4.510;2022-10-16T05:22:01;100655.00;;;12.10
15607;BMP180;7865;50.918;4.510;2022-10-16T05:27:02;100662.00;;;12.10
15607;BMP180;7865;50.918;4.510;2022-10-16T05:32:03;100663.00;;;12.10
15607;BMP180;7865;50.918;4.510;2022-10-16T05:37:05;100668.00;;;12.10
15607;BMP180;7865;50.918;4.510;2022-10-16T05:42:07;100666.00;;;12.20
15607;BMP180;7865;50.918;4.510;2022-10-16T05:47:08;100678.00;;;12.20
15607;BMP180;7865;50.918;4.510;2022-10-16T05:52:09;100695.00;;;12.20
15607;BMP180;7865;50.918;4.510;2022-10-16T05:57:10;100692.00;;;12.20
15607;BMP180;7865;50.918;4.510;2022-10-16T06:02:12;100700.00;;;12.10
15607;BMP180;7865;50.918;4.510;2022-10-16T06:07:13;100706.00;;;12.10
15607;BMP180;7865;50.918;4.510;2022-10-16T06:12:15;100713.00;;;12.10
15607;BMP180;7865;50.918;4.510;2022-10-16T06:17:16;100727.00;;;12.10
15607;BMP180;7865;50.918;4.510;2022-10-16T06:22:18;100726.00;;;12.20
15607;BMP180;7865;50.918;4.510;2022-10-16T06:27:19;100734.00;;;12.20
15607;BMP180;7865;50.918;4.510;2022-10-16T06:32:20;100723.00;;;12.30
15607;BMP180;7865;50.918;4.510;2022-10-16T06:37:22;100729.00;;;12.40
15607;BMP180;7865;50.918;4.510;2022-10-16T06:42:23;100731.00;;;12.50
15607;BMP180;7865;50.918;4.510;2022-10-16T06:47:25;100752.00;;;12.60
15607;BMP180;7865;50.918;4.510;2022-10-16T06:52:28;100766.00;;;12.80
15607;BMP180;7865;50.918;4.510;2022-10-16T06:57:29;100762.00;;;13.00
15607;BMP180;7865;50.918;4.510;2022-10-16T07:02:31;100777.00;;;13.20
15607;BMP180;7865;50.918;4.510;2022-10-16T07:07:32;100780.00;;;13.40
15607;BMP180;7865;50.918;4.510;2022-10-16T07:12:33;100798.00;;;13.40
15607;BMP180;7865;50.918;4.510;2022-10-16T07:17:34;100808.00;;;13.30
15607;BMP180;7865;50.918;4.510;2022-10-16T07:22:35;100815.00;;;13.30
15607;BMP180;7865;50.918;4.510;2022-10-16T07:27:37;100827.00;;;13.30
15607;BMP180;7865;50.918;4.510;2022-10-16T07:32:38;100836.00;;;13.60
15607;BMP180;7865;50.918;4.510;2022-10-16T07:37:44;100846.00;;;13.90
15607;BMP180;7865;50.918;4.510;2022-10-16T07:42:46;100866.00;;;14.20
15607;BMP180;7865;50.918;4.510;2022-10-16T07:47:47;100882.00;;;14.30
15607;BMP180;7865;50.918;4.510;2022-10-16T07:52:48;100879.00;;;14.60
15607;BMP180;7865;50.918;4.510;2022-10-16T07:57:49;100886.00;;;14.80
15607;BMP180;7865;50.918;4.510;2022-10-16T08:02:50;100889.00;;;15.10
15607;BMP180;7865;50.918;4.510;2022-10-16T08:07:51;100889.00;;;15.40
15607;BMP180;7865;50.918;4.510;2022-10-16T08:12:53;100897.00;;;15.90
15607;BMP180;7865;50.918;4.510;2022-10-16T08:17:59;100895.00;;;16.40
15607;BMP180;7865;50.918;4.510;2022-10-16T08:23:00;100901.00;;;16.90
15607;BMP180;7865;50.918;4.510;2022-10-16T08:28:06;100894.00;;;17.20
15607;BMP180;7865;50.918;4.510;2022-10-16T08:33:08;100902.00;;;17.50
15607;BMP180;7865;50.918;4.510;2022-10-16T08:38:09;100910.00;;;17.70
15607;BMP180;7865;50.918;4.510;2022-10-16T08:43:23;100913.00;;;18.00
15607;BMP180;7865;50.918;4.510;2022-10-16T08:48:46;100922.00;;;18.20
15607;BMP180;7865;50.918;4.510;2022-10-16T08:53:57;100926.00;;;18.50
15607;BMP180;7865;50.918;4.510;2022-10-16T08:58:59;100934.00;;;18.80
15607;BMP180;7865;50.918;4.510;2022-10-16T09:09:33;100941.00;;;19.10
15607;BMP180;7865;50.918;4.510;2022-10-16T09:20:32;100956.00;;;19.50
15607;BMP180;7865;50.918;4.510;2022-10-16T09:25:35;100961.00;;;19.60
15607;BMP180;7865;50.918;4.510;2022-10-16T09:30:37;100962.00;;;19.60
15607;BMP180;7865;50.918;4.510;2022-10-16T09:35:42;100974.00;;;19.70
15607;BMP180;7865;50.918;4.510;2022-10-16T09:40:44;100981.00;;;19.70
15607;BMP180;7865;50.918;4.510;2022-10-16T09:46:00;100982.00;;;19.90
15607;BMP180;7865;50.918;4.510;2022-10-16T09:51:04;100992.00;;;20.00
15607;BMP180;7865;50.918;4.510;2022-10-16T09:56:05;100993.00;;;20.10
15607;BMP180;7865;50.918;4.510;2022-10-16T10:01:14;100994.00;;;20.20
15607;BMP180;7865;50.918;4.510;2022-10-16T10:06:24;100998.00;;;20.30
15607;BMP180;7865;50.918;4.510;2022-10-16T10:11:50;101010.00;;;20.60
15607;BMP180;7865;50.918;4.510;2022-10-16T10:17:14;101006.00;;;21.10
15607;BMP180;7865;50.918;4.510;2022-10-16T10:33:11;101002.00;;;21.30
15607;BMP180;7865;50.918;4.510;2022-10-16T10:38:41;101011.00;;;21.90
15607;BMP180;7865;50.918;4.510;2022-10-16T10:44:16;101012.00;;;21.90
15607;BMP180;7865;50.918;4.510;2022-10-16T10:54:57;101013.00;;;21.60
15607;BMP180;7865;50.918;4.510;2022-10-16T11:05:36;101003.00;;;22.40
15607;BMP180;7865;50.918;4.510;2022-10-16T11:15:49;101022.00;;;22.50
15607;BMP180;7865;50.918;4.510;2022-10-16T11:20:58;101002.00;;;23.50
15607;BMP180;7865;50.918;4.510;2022-10-16T11:26:05;101006.00;;;23.80
15607;BMP180;7865;50.918;4.510;2022-10-16T11:31:45;100996.00;;;23.70
15607;BMP180;7865;50.918;4.510;2022-10-16T11:36:50;101007.00;;;23.80
15607;BMP180;7865;50.918;4.510;2022-10-16T11:42:08;101010.00;;;23.80
15607;BMP180;7865;50.918;4.510;2022-10-16T11:58:36;101000.00;;;21.10
15607;BMP180;7865;50.918;4.510;2022-10-16T12:03:48;100996.00;;;20.50
15607;BMP180;7865;50.918;4.510;2022-10-16T12:08:54;100990.00;;;20.70
15607;BMP180;7865;50.918;4.510;2022-10-16T12:19:16;100996.00;;;21.90
15607;BMP180;7865;50.918;4.510;2022-10-16T12:24:39;101000.00;;;22.30
15607;BMP180;7865;50.918;4.510;2022-10-16T12:29:44;101004.00;;;22.00
15607;BMP180;7865;50.918;4.510;2022-10-16T12:34:45;101007.00;;;22.10
15607;BMP180;7865;50.918;4.510;2022-10-16T12:39:48;101010.00;;;22.60
15607;BMP180;7865;50.918;4.510;2022-10-16T12:44:50;101013.00;;;22.50
15607;BMP180;7865;50.918;4.510;2022-10-16T12:49:53;101027.00;;;22.30
15607;BMP180;7865;50.918;4.510;2022-10-16T12:54:58;101015.00;;;21.50
15607;BMP180;7865;50.918;4.510;2022-10-16T13:00:12;101029.00;;;21.50
15607;BMP180;7865;50.918;4.510;2022-10-16T13:16:04;101021.00;;;22.00
15607;BMP180;7865;50.918;4.510;2022-10-16T13:31:37;101016.00;;;21.20
15607;BMP180;7865;50.918;4.510;2022-10-16T13:36:45;101011.00;;;21.30
15607;BMP180;7865;50.918;4.510;2022-10-16T13:42:00;100998.00;;;21.40
15607;BMP180;7865;50.918;4.510;2022-10-16T13:47:20;101012.00;;;21.40
15607;BMP180;7865;50.918;4.510;2022-10-16T13:52:21;100997.00;;;21.00
15607;BMP180;7865;50.918;4.510;2022-10-16T13:57:24;100997.00;;;20.90
15607;BMP180;7865;50.918;4.510;2022-10-16T14:02:34;100994.00;;;20.70
15607;BMP180;7865;50.918;4.510;2022-10-16T14:07:37;100997.00;;;20.70
15607;BMP180;7865;50.918;4.510;2022-10-16T14:12:38;101002.00;;;20.80
15607;BMP180;7865;50.918;4.510;2022-10-16T14:17:43;101007.00;;;20.50
15607;BMP180;7865;50.918;4.510;2022-10-16T14:22:45;101007.00;;;20.30
15607;BMP180;7865;50.918;4.510;2022-10-16T14:27:57;101010.00;;;20.50
15607;BMP180;7865;50.918;4.510;2022-10-16T14:33:03;101001.00;;;20.30
15607;BMP180;7865;50.918;4.510;2022-10-16T14:38:06;100985.00;;;20.00
15607;BMP180;7865;50.918;4.510;2022-10-16T14:43:22;100992.00;;;20.00
15607;BMP180;7865;50.918;4.510;2022-10-16T14:48:25;101001.00;;;20.00
15607;BMP180;7865;50.918;4.510;2022-10-16T14:53:26;100997.00;;;20.00
15607;BMP180;7865;50.918;4.510;2022-10-16T14:58:27;100985.00;;;20.00
15607;BMP180;7865;50.918;4.510;2022-10-16T15:03:28;100993.00;;;19.80
15607;BMP180;7865;50.918;4.510;2022-10-16T15:08:30;100989.00;;;19.70
15607;BMP180;7865;50.918;4.510;2022-10-16T15:13:31;100992.00;;;19.60
15607;BMP180;7865;50.918;4.510;2022-10-16T15:18:32;100977.00;;;19.60
15607;BMP180;7865;50.918;4.510;2022-10-16T15:23:33;100980.00;;;19.40
15607;BMP180;7865;50.918;4.510;2022-10-16T15:28:34;100985.00;;;19.20
15607;BMP180;7865;50.918;4.510;2022-10-16T15:33:37;100990.00;;;19.00
15607;BMP180;7865;50.918;4.510;2022-10-16T15:38:40;100979.00;;;18.80
15607;BMP180;7865;50.918;4.510;2022-10-16T15:43:41;100962.00;;;18.60
15607;BMP180;7865;50.918;4.510;2022-10-16T15:48:43;100958.00;;;18.40
15607;BMP180;7865;50.918;4.510;2022-10-16T15:53:44;100956.00;;;18.20
15607;BMP180;7865;50.918;4.510;2022-10-16T15:58:47;100957.00;;;18.00
15607;BMP180;7865;50.918;4.510;2022-10-16T16:03:52;100950.00;;;18.00
15607;BMP180;7865;50.918;4.510;2022-10-16T16:08:54;100949.00;;;17.80
15607;BMP180;7865;50.918;4.510;2022-10-16T16:13:56;100953.00;;;17.70
15607;BMP180;7865;50.918;4.510;2022-10-16T16:18:57;100935.00;;;17.50
15607;BMP180;7865;50.918;4.510;2022-10-16T16:23:59;100937.00;;;17.40
15607;BMP180;7865;50.918;4.510;2022-10-16T16:29:00;100949.00;;;17.30
15607;BMP180;7865;50.918;4.510;2022-10-16T16:34:01;100954.00;;;17.30
15607;BMP180;7865;50.918;4.510;2022-10-16T16:39:04;100953.00;;;17.20
15607;BMP180;7865;50.918;4.510;2022-10-16T16:44:07;100949.00;;;17.10
15607;BMP180;7865;50.918;4.510;2022-10-16T16:49:11;100955.00;;;17.00
15607;BMP180;7865;50.918;4.510;2022-10-16T16:54:12;100948.00;;;17.00
15607;BMP180;7865;50.918;4.510;2022-10-16T16:59:19;100949.00;;;16.90
15607;BMP180;7865;50.918;4.510;2022-10-16T17:04:21;100963.00;;;16.80
15607;BMP180;7865;50.918;4.510;2022-10-16T17:09:23;101036.00;;;16.70
15607;BMP180;7865;50.918;4.510;2022-10-16T17:14:24;101046.00;;;16.70
15607;BMP180;7865;50.918;4.510;2022-10-16T17:19:25;101021.00;;;16.40
15607;BMP180;7865;50.918;4.510;2022-10-16T17:24:26;101035.00;;;16.10
15607;BMP180;7865;50.918;4.510;2022-10-16T17:29:27;101034.00;;;15.80
15607;BMP180;7865;50.918;4.510;2022-10-16T17:34:29;101042.00;;;15.60
15607;BMP180;7865;50.918;4.510;2022-10-16T17:39:30;101065.00;;;15.50
15607;BMP180;7865;50.918;4.510;2022-10-16T17:44:31;101049.00;;;15.40
15607;BMP180;7865;50.918;4.510;2022-10-16T17:49:33;101038.00;;;15.40
15607;BMP180;7865;50.918;4.510;2022-10-16T17:54:34;101039.00;;;15.30
15607;BMP180;7865;50.918;4.510;2022-10-16T17:59:36;101029.00;;;15.20
15607;BMP180;7865;50.918;4.510;2022-10-16T18:04:37;101038.00;;;15.20
15607;BMP180;7865;50.918;4.510;2022-10-16T18:09:38;101039.00;;;15.20
15607;BMP180;7865;50.918;4.510;2022-10-16T18:14:59;101040.00;;;15.10
15607;BMP180;7865;50.918;4.510;2022-10-16T18:20:05;101038.00;;;15.10
15607;BMP180;7865;50.918;4.510;2022-10-16T18:25:07;101044.00;;;15.10
15607;BMP180;7865;50.918;4.510;2022-10-16T18:30:08;101034.00;;;15.00
15607;BMP180;7865;50.918;4.510;2022-10-16T18:35:10;101040.00;;;15.00
15607;BMP180;7865;50.918;4.510;2022-10-16T18:40:11;101051.00;;;14.90
15607;BMP180;7865;50.918;4.510;2022-10-16T18:45:12;101061.00;;;14.90
15607;BMP180;7865;50.918;4.510;2022-10-16T18:50:13;101075.00;;;14.90
15607;BMP180;7865;50.918;4.510;2022-10-16T18:55:14;101075.00;;;14.80
15607;BMP180;7865;50.918;4.510;2022-10-16T19:00:16;101060.00;;;14.80
15607;BMP180;7865;50.918;4.510;2022-10-16T19:05:17;101054.00;;;14.90
15607;BMP180;7865;50.918;4.510;2022-10-16T19:10:18;101052.00;;;14.80
15607;BMP180;7865;50.918;4.510;2022-10-16T19:15:19;101057.00;;;14.80
15607;BMP180;7865;50.918;4.510;2022-10-16T19:20:22;101054.00;;;14.60
15607;BMP180;7865;50.918;4.510;2022-10-16T19:25:23;101057.00;;;14.50
15607;BMP180;7865;50.918;4.510;2022-10-16T19:30:24;101054.00;;;14.50
15607;BMP180;7865;50.918;4.510;2022-10-16T19:35:26;101060.00;;;14.50
15607;BMP180;7865;50.918;4.510;2022-10-16T19:40:27;101054.00;;;14.60
15607;BMP180;7865;50.918;4.510;2022-10-16T19:45:28;101052.00;;;14.60
15607;BMP180;7865;50.918;4.510;2022-10-16T19:50:29;101046.00;;;14.60
15607;BMP180;7865;50.918;4.510;2022-10-16T19:55:30;101043.00;;;14.60
15607;BMP180;7865;50.918;4.510;2022-10-16T20:00:32;101043.00;;;14.50
15607;BMP180;7865;50.918;4.510;2022-10-16T20:05:33;101040.00;;;14.40
15607;BMP180;7865;50.918;4.510;2022-10-16T20:10:34;101040.00;;;14.50
15607;BMP180;7865;50.918;4.510;2022-10-16T20:15:36;101029.00;;;14.50
15607;BMP180;7865;50.918;4.510;2022-10-16T20:20:39;101018.00;;;14.60
15607;BMP180;7865;50.918;4.510;2022-10-16T20:25:41;101021.00;;;14.70
15607;BMP180;7865;50.918;4.510;2022-10-16T20:30:45;101020.00;;;14.70
15607;BMP180;7865;50.918;4.510;2022-10-16T20:35:47;101030.00;;;14.70
15607;BMP180;7865;50.918;4.510;2022-10-16T20:40:49;101020.00;;;14.70
15607;BMP180;7865;50.918;4.510;2022-10-16T20:45:58;101022.00;;;14.60
15607;BMP180;7865;50.918;4.510;2022-10-16T20:51:10;101014.00;;;14.60
15607;BMP180;7865;50.918;4.510;2022-10-16T20:56:13;101014.00;;;14.50
15607;BMP180;7865;50.918;4.510;2022-10-16T21:01:20;101004.00;;;14.40
15607;BMP180;7865;50.918;4.510;2022-10-16T21:06:23;101009.00;;;14.30
15607;BMP180;7865;50.918;4.510;2022-10-16T21:11:26;101009.00;;;14.30
15607;BMP180;7865;50.918;4.510;2022-10-16T21:16:27;101009.00;;;14.20
15607;BMP180;7865;50.918;4.510;2022-10-16T21:21:31;101018.00;;;14.10
15607;BMP180;7865;50.918;4.510;2022-10-16T21:26:32;101007.00;;;14.10
15607;BMP180;7865;50.918;4.510;2022-10-16T21:31:34;101012.00;;;14.00
15607;BMP180;7865;50.918;4.510;2022-10-16T21:36:38;101011.00;;;13.90
15607;BMP180;7865;50.918;4.510;2022-10-16T21:41:41;101014.00;;;14.00
15607;BMP180;7865;50.918;4.510;2022-10-16T21:46:43;101010.00;;;14.10
15607;BMP180;7865;50.918;4.510;2022-10-16T21:51:49;101002.00;;;14.10
15607;BMP180;7865;50.918;4.510;2022-10-16T21:56:50;100997.00;;;14.10
15607;BMP180;7865;50.918;4.510;2022-10-16T22:01:53;100997.00;;;14.00
15607;BMP180;7865;50.918;4.510;2022-10-16T22:06:54;100987.00;;;13.90
15607;BMP180;7865;50.918;4.510;2022-10-16T22:11:55;100985.00;;;13.80
15607;BMP180;7865;50.918;4.510;2022-10-16T22:16:57;100988.00;;;13.80
15607;BMP180;7865;50.918;4.510;2022-10-16T22:21:58;100995.00;;;13.80
15607;BMP180;7865;50.918;4.510;2022-10-16T22:27:01;101000.00;;;13.80
15607;BMP180;7865;50.918;4.510;2022-10-16T22:32:02;100993.00;;;13.80
15607;BMP180;7865;50.918;4.510;2022-10-16T22:37:03;100990.00;;;13.80
15607;BMP180;7865;50.918;4.510;2022-10-16T22:42:04;100979.00;;;13.70
15607;BMP180;7865;50.918;4.510;2022-10-16T22:47:06;100977.00;;;13.80
15607;BMP180;7865;50.918;4.510;2022-10-16T22:52:07;100985.00;;;13.80
15607;BMP180;7865;50.918;4.510;2022-10-16T22:57:08;100976.00;;;13.80
15607;BMP180;7865;50.918;4.510;2022-10-16T23:02:09;100969.00;;;13.80
15607;BMP180;7865;50.918;4.510;2022-10-16T23:07:10;100969.00;;;13.90
15607;BMP180;7865;50.918;4.510;2022-10-16T23:12:11;100979.00;;;13.90
15607;BMP180;7865;50.918;4.510;2022-10-16T23:17:12;100978.00;;;13.90
15607;BMP180;7865;50.918;4.510;2022-10-16T23:22:14;100975.00;;;13.80
15607;BMP180;7865;50.918;4.510;2022-10-16T23:27:15;100974.00;;;13.80
15607;BMP180;7865;50.918;4.510;2022-10-16T23:32:16;100961.00;;;13.80
15607;BMP180;7865;50.918;4.510;2022-10-16T23:37:17;100957.00;;;13.80
15607;BMP180;7865;50.918;4.510;2022-10-16T23:42:23;100950.00;;;13.80
15607;BMP180;7865;50.918;4.510;2022-10-16T23:47:25;100946.00;;;13.80
15607;BMP180;7865;50.918;4.510;2022-10-16T23:52:26;100948.00;;;13.70
15607;BMP180;7865;50.918;4.510;2022-10-16T23:57:27;100950.00;;;13.70
